sensor_id;sensor_type;location;lat;lon;timestamp;temperature;humidity
38514;DHT22;24282;48.400;10.808;2023-05-10T00:02:09;14.90;86.60
38514;DHT22;24282;48.400;10.808;2023-05-10T00:04:35;14.90;86.60
38514;DHT22;24282;48.400;10.808;2023-05-10T00:07:01;14.90;86.60
38514;DHT22;24282;48.400;10.808;2023-05-10T00:09:27;14.90;86.50
38514;DHT22;24282;48.400;10.808;2023-05-10T00:11:53;14.90;86.80
38514;DHT22;24282;48.400;10.808;2023-05-10T00:14:19;14.80;86.90
38514;DHT22;24282;48.400;10.808;2023-05-10T00:16:45;14.80;86.90
38514;DHT22;24282;48.400;10.808;2023-05-10T00:19:10;14.80;86.90
38514;DHT22;24282;48.400;10.808;2023-05-10T00:21:36;14.80;86.80
38514;DHT22;24282;48.400;10.808;2023-05-10T00:24:02;14.80;86.70
38514;DHT22;24282;48.400;10.808;2023-05-10T00:26:28;14.80;86.60
38514;DHT22;24282;48.400;10.808;2023-05-10T00:28:55;14.80;86.70
38514;DHT22;24282;48.400;10.808;2023-05-10T00:31:22;14.80;86.80
38514;DHT22;24282;48.400;10.808;2023-05-10T00:33:48;14.80;87.00
38514;DHT22;24282;48.400;10.808;2023-05-10T00:36:13;14.80;86.90
38514;DHT22;24282;48.400;10.808;2023-05-10T00:38:40;14.80;86.90
38514;DHT22;24282;48.400;10.808;2023-05-10T00:41:06;14.70;87.00
38514;DHT22;24282;48.400;10.808;2023-05-10T00:43:34;14.70;87.10
38514;DHT22;24282;48.400;10.808;2023-05-10T00:45:59;14.70;87.20
38514;DHT22;24282;48.400;10.808;2023-05-10T00:48:25;14.70;87.40
38514;DHT22;24282;48.400;10.808;2023-05-10T00:50:51;14.70;87.20
38514;DHT22;24282;48.400;10.808;2023-05-10T00:53:17;14.70;87.10
38514;DHT22;24282;48.400;10.808;2023-05-10T00:55:44;14.70;87.10
38514;DHT22;24282;48.400;10.808;2023-05-10T00:58:09;14.70;87.00
38514;DHT22;24282;48.400;10.808;2023-05-10T01:00:36;14.70;87.00
38514;DHT22;24282;48.400;10.808;2023-05-10T01:03:04;14.70;87.00
38514;DHT22;24282;48.400;10.808;2023-05-10T01:05:29;14.70;87.00
38514;DHT22;24282;48.400;10.808;2023-05-10T01:07:56;14.70;86.80
38514;DHT22;24282;48.400;10.808;2023-05-10T01:10:22;14.60;86.90
38514;DHT22;24282;48.400;10.808;2023-05-10T01:12:48;14.70;87.00
38514;DHT22;24282;48.400;10.808;2023-05-10T01:15:15;14.60;87.10
38514;DHT22;24282;48.400;10.808;2023-05-10T01:17:43;14.60;87.00
38514;DHT22;24282;48.400;10.808;2023-05-10T01:20:11;14.50;87.00
38514;DHT22;24282;48.400;10.808;2023-05-10T01:25:56;14.50;87.00
38514;DHT22;24282;48.400;10.808;2023-05-10T01:34:23;14.40;87.00
38514;DHT22;24282;48.400;10.808;2023-05-10T01:37:04;14.40;86.90
38514;DHT22;24282;48.400;10.808;2023-05-10T01:40:01;14.50;86.90
38514;DHT22;24282;48.400;10.808;2023-05-10T01:42:45;14.40;86.90
38514;DHT22;24282;48.400;10.808;2023-05-10T01:47:51;14.40;87.10
38514;DHT22;24282;48.400;10.808;2023-05-10T01:50:24;14.40;87.10
38514;DHT22;24282;48.400;10.808;2023-05-10T01:52:55;14.40;87.10
38514;DHT22;24282;48.400;10.808;2023-05-10T01:55:26;14.40;87.00
38514;DHT22;24282;48.400;10.808;2023-05-10T01:58:06;14.40;86.90
38514;DHT22;24282;48.400;10.808;2023-05-10T02:00:34;14.40;86.70
38514;DHT22;24282;48.400;10.808;2023-05-10T02:03:03;14.40;86.80
38514;DHT22;24282;48.400;10.808;2023-05-10T02:05:30;14.40;86.90
38514;DHT22;24282;48.400;10.808;2023-05-10T02:07:58;14.30;86.90
38514;DHT22;24282;48.400;10.808;2023-05-10T02:10:24;14.30;86.90
38514;DHT22;24282;48.400;10.808;2023-05-10T02:12:51;14.30;86.60
38514;DHT22;24282;48.400;10.808;2023-05-10T02:15:22;14.30;86.70
38514;DHT22;24282;48.400;10.808;2023-05-10T02:17:48;14.30;86.70
38514;DHT22;24282;48.400;10.808;2023-05-10T02:20:16;14.20;86.80
38514;DHT22;24282;48.400;10.808;2023-05-10T02:22:42;14.20;86.80
38514;DHT22;24282;48.400;10.808;2023-05-10T02:25:10;14.20;86.80
38514;DHT22;24282;48.400;10.808;2023-05-10T02:27:37;14.20;87.00
38514;DHT22;24282;48.400;10.808;2023-05-10T02:30:04;14.20;87.10
38514;DHT22;24282;48.400;10.808;2023-05-10T02:32:31;14.20;87.00
38514;DHT22;24282;48.400;10.808;2023-05-10T02:34:58;14.10;87.00
38514;DHT22;24282;48.400;10.808;2023-05-10T02:37:25;14.20;86.90
38514;DHT22;24282;48.400;10.808;2023-05-10T02:39:54;14.10;86.90
38514;DHT22;24282;48.400;10.808;2023-05-10T02:42:25;14.10;86.80
38514;DHT22;24282;48.400;10.808;2023-05-10T02:44:54;14.10;87.00
38514;DHT22;24282;48.400;10.808;2023-05-10T02:47:21;14.10;87.10
38514;DHT22;24282;48.400;10.808;2023-05-10T02:49:47;14.10;87.10
38514;DHT22;24282;48.400;10.808;2023-05-10T02:52:18;14.10;87.10
38514;DHT22;24282;48.400;10.808;2023-05-10T02:54:50;14.10;87.10
38514;DHT22;24282;48.400;10.808;2023-05-10T02:57:24;14.10;86.90
38514;DHT22;24282;48.400;10.808;2023-05-10T02:59:51;14.10;87.20
38514;DHT22;24282;48.400;10.808;2023-05-10T03:02:17;14.10;86.90
38514;DHT22;24282;48.400;10.808;2023-05-10T03:04:43;14.10;87.10
38514;DHT22;24282;48.400;10.808;2023-05-10T03:07:09;14.10;87.20
38514;DHT22;24282;48.400;10.808;2023-05-10T03:09:35;14.00;87.00
38514;DHT22;24282;48.400;10.808;2023-05-10T03:12:15;14.10;86.90
38514;DHT22;24282;48.400;10.808;2023-05-10T03:15:02;14.10;87.10
38514;DHT22;24282;48.400;10.808;2023-05-10T03:20:47;14.00;87.30
38514;DHT22;24282;48.400;10.808;2023-05-10T03:23:22;14.00;87.30
38514;DHT22;24282;48.400;10.808;2023-05-10T03:25:50;13.90;87.40
38514;DHT22;24282;48.400;10.808;2023-05-10T03:28:18;14.00;87.60
38514;DHT22;24282;48.400;10.808;2023-05-10T03:30:45;14.00;87.20
38514;DHT22;24282;48.400;10.808;2023-05-10T03:33:12;14.00;86.70
38514;DHT22;24282;48.400;10.808;2023-05-10T03:35:42;14.00;86.90
38514;DHT22;24282;48.400;10.808;2023-05-10T03:38:09;13.90;87.40
38514;DHT22;24282;48.400;10.808;2023-05-10T03:40:35;14.00;87.40
38514;DHT22;24282;48.400;10.808;2023-05-10T03:43:01;14.00;86.80
38514;DHT22;24282;48.400;10.808;2023-05-10T03:45:27;14.00;85.40
38514;DHT22;24282;48.400;10.808;2023-05-10T03:47:53;14.00;85.70
38514;DHT22;24282;48.400;10.808;2023-05-10T03:50:19;14.00;85.10
38514;DHT22;24282;48.400;10.808;2023-05-10T03:52:46;14.00;84.60
38514;DHT22;24282;48.400;10.808;2023-05-10T03:55:12;13.90;85.00
38514;DHT22;24282;48.400;10.808;2023-05-10T03:57:38;13.80;85.20
38514;DHT22;24282;48.400;10.808;2023-05-10T04:00:05;13.90;85.00
38514;DHT22;24282;48.400;10.808;2023-05-10T04:02:40;13.70;85.10
38514;DHT22;24282;48.400;10.808;2023-05-10T04:05:08;13.70;84.80
38514;DHT22;24282;48.400;10.808;2023-05-10T04:07:34;13.60;85.50
38514;DHT22;24282;48.400;10.808;2023-05-10T04:10:00;13.60;86.10
38514;DHT22;24282;48.400;10.808;2023-05-10T04:12:26;13.60;85.80
38514;DHT22;24282;48.400;10.808;2023-05-10T04:14:52;13.60;85.50
38514;DHT22;24282;48.400;10.808;2023-05-10T04:17:17;13.60;85.10
38514;DHT22;24282;48.400;10.808;2023-05-10T04:19:43;13.50;85.40
38514;DHT22;24282;48.400;10.808;2023-05-10T04:22:09;13.50;86.00
38514;DHT22;24282;48.400;10.808;2023-05-10T04:24:34;13.50;86.20
38514;DHT22;24282;48.400;10.808;2023-05-10T04:27:00;13.50;86.60
38514;DHT22;24282;48.400;10.808;2023-05-10T04:29:26;13.50;86.70
38514;DHT22;24282;48.400;10.808;2023-05-10T04:31:52;13.50;86.70
38514;DHT22;24282;48.400;10.808;2023-05-10T04:34:21;13.50;86.90
38514;DHT22;24282;48.400;10.808;2023-05-10T04:36:46;13.50;87.00
38514;DHT22;24282;48.400;10.808;2023-05-10T04:39:12;13.50;86.70
38514;DHT22;24282;48.400;10.808;2023-05-10T04:41:39;13.50;86.70
38514;DHT22;24282;48.400;10.808;2023-05-10T04:44:05;13.50;86.40
38514;DHT22;24282;48.400;10.808;2023-05-10T04:46:30;13.40;86.60
38514;DHT22;24282;48.400;10.808;2023-05-10T04:48:56;13.50;86.40
38514;DHT22;24282;48.400;10.808;2023-05-10T04:51:22;13.50;85.90
38514;DHT22;24282;48.400;10.808;2023-05-10T04:53:47;13.40;86.20
38514;DHT22;24282;48.400;10.808;2023-05-10T04:56:13;13.40;86.50
38514;DHT22;24282;48.400;10.808;2023-05-10T04:58:39;13.50;85.50
38514;DHT22;24282;48.400;10.808;2023-05-10T05:01:06;13.50;85.10
38514;DHT22;24282;48.400;10.808;2023-05-10T05:03:32;13.40;85.50
38514;DHT22;24282;48.400;10.808;2023-05-10T05:05:59;13.40;85.90
38514;DHT22;24282;48.400;10.808;2023-05-10T05:08:24;13.40;86.20
38514;DHT22;24282;48.400;10.808;2023-05-10T05:10:50;13.40;86.60
38514;DHT22;24282;48.400;10.808;2023-05-10T05:13:16;13.40;86.40
38514;DHT22;24282;48.400;10.808;2023-05-10T05:15:42;13.40;86.30
38514;DHT22;24282;48.400;10.808;2023-05-10T05:18:08;13.40;86.30
38514;DHT22;24282;48.400;10.808;2023-05-10T05:20:33;13.40;86.60
38514;DHT22;24282;48.400;10.808;2023-05-10T05:23:00;13.40;86.80
38514;DHT22;24282;48.400;10.808;2023-05-10T05:25:26;13.40;86.60
38514;DHT22;24282;48.400;10.808;2023-05-10T05:27:51;13.40;86.80
38514;DHT22;24282;48.400;10.808;2023-05-10T05:30:17;13.50;87.00
38514;DHT22;24282;48.400;10.808;2023-05-10T05:32:43;13.50;87.40
38514;DHT22;24282;48.400;10.808;2023-05-10T05:35:09;13.50;87.70
38514;DHT22;24282;48.400;10.808;2023-05-10T05:37:35;13.50;87.70
38514;DHT22;24282;48.400;10.808;2023-05-10T05:40:01;13.60;87.80
38514;DHT22;24282;48.400;10.808;2023-05-10T05:42:27;13.70;87.50
38514;DHT22;24282;48.400;10.808;2023-05-10T05:44:52;13.70;87.40
38514;DHT22;24282;48.400;10.808;2023-05-10T05:47:18;13.70;87.30
38514;DHT22;24282;48.400;10.808;2023-05-10T05:49:44;13.70;87.30
38514;DHT22;24282;48.400;10.808;2023-05-10T05:52:12;13.70;87.30
38514;DHT22;24282;48.400;10.808;2023-05-10T05:54:39;13.80;86.80
38514;DHT22;24282;48.400;10.808;2023-05-10T05:57:05;13.80;86.50
38514;DHT22;24282;48.400;10.808;2023-05-10T05:59:30;13.80;86.50
38514;DHT22;24282;48.400;10.808;2023-05-10T06:01:56;13.80;86.60
38514;DHT22;24282;48.400;10.808;2023-05-10T06:04:22;13.80;86.30
38514;DHT22;24282;48.400;10.808;2023-05-10T06:06:47;13.80;85.70
38514;DHT22;24282;48.400;10.808;2023-05-10T06:09:13;13.80;86.10
38514;DHT22;24282;48.400;10.808;2023-05-10T06:11:39;13.70;86.40
38514;DHT22;24282;48.400;10.808;2023-05-10T06:14:05;13.70;86.80
38514;DHT22;24282;48.400;10.808;2023-05-10T06:16:32;13.80;86.50
38514;DHT22;24282;48.400;10.808;2023-05-10T06:18:58;13.80;86.60
38514;DHT22;24282;48.400;10.808;2023-05-10T06:21:24;13.80;86.80
38514;DHT22;24282;48.400;10.808;2023-05-10T06:23:51;13.80;87.00
38514;DHT22;24282;48.400;10.808;2023-05-10T06:26:17;13.90;87.10
38514;DHT22;24282;48.400;10.808;2023-05-10T06:28:42;13.90;87.10
38514;DHT22;24282;48.400;10.808;2023-05-10T06:31:08;13.90;86.80
38514;DHT22;24282;48.400;10.808;2023-05-10T06:33:34;13.90;86.50
38514;DHT22;24282;48.400;10.808;2023-05-10T06:36:00;13.90;86.60
38514;DHT22;24282;48.400;10.808;2023-05-10T06:38:26;14.00;86.00
38514;DHT22;24282;48.400;10.808;2023-05-10T06:40:51;13.90;86.10
38514;DHT22;24282;48.400;10.808;2023-05-10T06:43:17;13.90;86.50
38514;DHT22;24282;48.400;10.808;2023-05-10T06:45:43;13.90;86.10
38514;DHT22;24282;48.400;10.808;2023-05-10T06:48:09;14.00;86.30
38514;DHT22;24282;48.400;10.808;2023-05-10T06:50:35;14.00;86.00
38514;DHT22;24282;48.400;10.808;2023-05-10T06:53:01;14.10;85.20
38514;DHT22;24282;48.400;10.808;2023-05-10T06:55:27;14.00;85.20
38514;DHT22;24282;48.400;10.808;2023-05-10T06:57:53;14.10;85.70
38514;DHT22;24282;48.400;10.808;2023-05-10T07:00:19;14.10;85.90
38514;DHT22;24282;48.400;10.808;2023-05-10T07:02:46;14.20;85.80
38514;DHT22;24282;48.400;10.808;2023-05-10T07:05:12;14.30;86.10
38514;DHT22;24282;48.400;10.808;2023-05-10T07:07:38;14.30;85.40
38514;DHT22;24282;48.400;10.808;2023-05-10T07:10:05;14.40;85.20
38514;DHT22;24282;48.400;10.808;2023-05-10T07:12:31;14.40;85.00
38514;DHT22;24282;48.400;10.808;2023-05-10T07:14:57;14.40;84.60
38514;DHT22;24282;48.400;10.808;2023-05-10T07:17:22;14.40;84.70
38514;DHT22;24282;48.400;10.808;2023-05-10T07:19:48;14.60;84.90
38514;DHT22;24282;48.400;10.808;2023-05-10T07:22:15;14.60;84.50
38514;DHT22;24282;48.400;10.808;2023-05-10T07:24:41;14.60;84.30
38514;DHT22;24282;48.400;10.808;2023-05-10T07:27:06;14.70;84.00
38514;DHT22;24282;48.400;10.808;2023-05-10T07:29:32;14.70;83.00
38514;DHT22;24282;48.400;10.808;2023-05-10T07:31:58;14.80;83.30
38514;DHT22;24282;48.400;10.808;2023-05-10T07:34:24;14.80;83.40
38514;DHT22;24282;48.400;10.808;2023-05-10T07:36:50;14.80;83.50
38514;DHT22;24282;48.400;10.808;2023-05-10T07:39:16;14.80;83.00
38514;DHT22;24282;48.400;10.808;2023-05-10T07:41:42;14.90;82.50
38514;DHT22;24282;48.400;10.808;2023-05-10T07:44:07;14.80;82.80
38514;DHT22;24282;48.400;10.808;2023-05-10T07:46:33;14.90;83.50
38514;DHT22;24282;48.400;10.808;2023-05-10T07:48:59;14.90;82.40
38514;DHT22;24282;48.400;10.808;2023-05-10T07:51:25;15.00;82.70
38514;DHT22;24282;48.400;10.808;2023-05-10T07:53:50;15.00;81.40
38514;DHT22;24282;48.400;10.808;2023-05-10T07:56:34;15.00;82.10
38514;DHT22;24282;48.400;10.808;2023-05-10T07:59:01;15.10;81.40
38514;DHT22;24282;48.400;10.808;2023-05-10T08:01:30;15.10;81.80
38514;DHT22;24282;48.400;10.808;2023-05-10T08:03:57;15.20;80.30
38514;DHT22;24282;48.400;10.808;2023-05-10T08:06:23;15.10;80.20
38514;DHT22;24282;48.400;10.808;2023-05-10T08:08:49;15.10;80.90
38514;DHT22;24282;48.400;10.808;2023-05-10T08:11:19;15.10;81.10
38514;DHT22;24282;48.400;10.808;2023-05-10T08:13:46;15.20;81.30
38514;DHT22;24282;48.400;10.808;2023-05-10T08:16:12;15.20;80.90
38514;DHT22;24282;48.400;10.808;2023-05-10T08:18:38;15.20;80.30
38514;DHT22;24282;48.400;10.808;2023-05-10T08:21:05;15.30;80.60
38514;DHT22;24282;48.400;10.808;2023-05-10T08:23:31;15.30;79.10
38514;DHT22;24282;48.400;10.808;2023-05-10T08:25:57;15.40;79.80
38514;DHT22;24282;48.400;10.808;2023-05-10T08:28:22;15.30;80.30
38514;DHT22;24282;48.400;10.808;2023-05-10T08:30:50;15.40;80.10
38514;DHT22;24282;48.400;10.808;2023-05-10T08:33:17;15.30;78.80
38514;DHT22;24282;48.400;10.808;2023-05-10T08:35:43;15.20;79.20
38514;DHT22;24282;48.400;10.808;2023-05-10T08:38:08;15.20;79.70
38514;DHT22;24282;48.400;10.808;2023-05-10T08:40:34;15.20;79.70
38514;DHT22;24282;48.400;10.808;2023-05-10T08:43:07;15.20;79.80
38514;DHT22;24282;48.400;10.808;2023-05-10T08:45:37;15.20;80.30
38514;DHT22;24282;48.400;10.808;2023-05-10T08:48:06;15.30;80.80
38514;DHT22;24282;48.400;10.808;2023-05-10T08:50:37;15.40;80.30
38514;DHT22;24282;48.400;10.808;2023-05-10T08:53:05;15.50;80.60
38514;DHT22;24282;48.400;10.808;2023-05-10T08:55:32;15.60;79.10
38514;DHT22;24282;48.400;10.808;2023-05-10T08:58:00;15.70;78.30
38514;DHT22;24282;48.400;10.808;2023-05-10T09:00:26;15.70;79.30
38514;DHT22;24282;48.400;10.808;2023-05-10T09:02:53;15.70;78.30
38514;DHT22;24282;48.400;10.808;2023-05-10T09:05:19;15.60;77.60
38514;DHT22;24282;48.400;10.808;2023-05-10T09:07:45;15.50;78.00
38514;DHT22;24282;48.400;10.808;2023-05-10T09:10:11;15.40;78.60
38514;DHT22;24282;48.400;10.808;2023-05-10T09:12:38;15.40;78.90
38514;DHT22;24282;48.400;10.808;2023-05-10T09:15:05;15.30;78.70
38514;DHT22;24282;48.400;10.808;2023-05-10T09:17:32;15.20;79.00
38514;DHT22;24282;48.400;10.808;2023-05-10T09:20:00;15.30;79.40
38514;DHT22;24282;48.400;10.808;2023-05-10T09:22:26;15.30;79.90
38514;DHT22;24282;48.400;10.808;2023-05-10T09:25:11;15.40;79.10
38514;DHT22;24282;48.400;10.808;2023-05-10T09:27:39;15.40;79.60
38514;DHT22;24282;48.400;10.808;2023-05-10T09:30:06;15.40;78.70
38514;DHT22;24282;48.400;10.808;2023-05-10T09:35:10;15.30;79.90
38514;DHT22;24282;48.400;10.808;2023-05-10T09:37:38;15.30;80.10
38514;DHT22;24282;48.400;10.808;2023-05-10T09:40:07;15.40;80.20
38514;DHT22;24282;48.400;10.808;2023-05-10T09:42:34;15.40;80.00
38514;DHT22;24282;48.400;10.808;2023-05-10T09:45:04;15.40;80.30
38514;DHT22;24282;48.400;10.808;2023-05-10T09:47:34;15.40;79.90
38514;DHT22;24282;48.400;10.808;2023-05-10T09:50:01;15.50;80.00
38514;DHT22;24282;48.400;10.808;2023-05-10T09:52:31;15.60;80.50
38514;DHT22;24282;48.400;10.808;2023-05-10T09:55:10;15.60;79.50
38514;DHT22;24282;48.400;10.808;2023-05-10T09:57:36;15.70;77.90
38514;DHT22;24282;48.400;10.808;2023-05-10T10:00:02;15.60;76.80
38514;DHT22;24282;48.400;10.808;2023-05-10T10:02:39;15.60;75.90
38514;DHT22;24282;48.400;10.808;2023-05-10T10:05:06;15.40;75.70
38514;DHT22;24282;48.400;10.808;2023-05-10T10:07:32;15.40;77.20
38514;DHT22;24282;48.400;10.808;2023-05-10T10:09:59;15.20;77.90
38514;DHT22;24282;48.400;10.808;2023-05-10T10:12:25;15.20;78.90
38514;DHT22;24282;48.400;10.808;2023-05-10T10:14:52;15.30;79.00
38514;DHT22;24282;48.400;10.808;2023-05-10T10:17:19;15.30;78.20
38514;DHT22;24282;48.400;10.808;2023-05-10T10:19:47;15.30;78.20
38514;DHT22;24282;48.400;10.808;2023-05-10T10:22:13;15.30;78.40
38514;DHT22;24282;48.400;10.808;2023-05-10T10:24:39;15.40;78.80
38514;DHT22;24282;48.400;10.808;2023-05-10T10:27:48;15.60;79.30
38514;DHT22;24282;48.400;10.808;2023-05-10T10:35:29;16.30;76.40
38514;DHT22;24282;48.400;10.808;2023-05-10T10:37:55;16.60;74.70
38514;DHT22;24282;48.400;10.808;2023-05-10T10:40:34;16.80;72.10
38514;DHT22;24282;48.400;10.808;2023-05-10T10:43:25;16.80;74.00
38514;DHT22;24282;48.400;10.808;2023-05-10T10:46:14;16.90;73.40
38514;DHT22;24282;48.400;10.808;2023-05-10T10:49:08;16.90;72.10
38514;DHT22;24282;48.400;10.808;2023-05-10T10:51:37;16.80;72.70
38514;DHT22;24282;48.400;10.808;2023-05-10T10:54:12;16.70;73.20
38514;DHT22;24282;48.400;10.808;2023-05-10T10:56:38;16.80;71.90
38514;DHT22;24282;48.400;10.808;2023-05-10T10:59:03;16.80;71.60
38514;DHT22;24282;48.400;10.808;2023-05-10T11:01:33;16.70;72.80
38514;DHT22;24282;48.400;10.808;2023-05-10T11:06:32;16.80;71.40
38514;DHT22;24282;48.400;10.808;2023-05-10T11:09:08;16.70;73.20
38514;DHT22;24282;48.400;10.808;2023-05-10T11:11:35;16.70;72.80
38514;DHT22;24282;48.400;10.808;2023-05-10T11:14:07;16.70;72.40
38514;DHT22;24282;48.400;10.808;2023-05-10T11:16:43;16.60;71.20
38514;DHT22;24282;48.400;10.808;2023-05-10T11:19:14;16.50;72.80
38514;DHT22;24282;48.400;10.808;2023-05-10T11:24:30;16.50;72.40
38514;DHT22;24282;48.400;10.808;2023-05-10T11:26:56;16.40;71.50
38514;DHT22;24282;48.400;10.808;2023-05-10T11:29:22;16.50;72.00
38514;DHT22;24282;48.400;10.808;2023-05-10T11:31:51;16.40;72.30
38514;DHT22;24282;48.400;10.808;2023-05-10T11:34:27;16.40;72.60
38514;DHT22;24282;48.400;10.808;2023-05-10T11:36:55;16.30;72.80
38514;DHT22;24282;48.400;10.808;2023-05-10T11:39:21;16.30;73.70
38514;DHT22;24282;48.400;10.808;2023-05-10T11:41:50;16.20;74.00
38514;DHT22;24282;48.400;10.808;2023-05-10T11:44:16;16.20;76.10
38514;DHT22;24282;48.400;10.808;2023-05-10T11:46:42;16.30;77.00
38514;DHT22;24282;48.400;10.808;2023-05-10T11:49:08;16.30;78.70
38514;DHT22;24282;48.400;10.808;2023-05-10T11:51:34;16.40;78.30
38514;DHT22;24282;48.400;10.808;2023-05-10T11:54:09;16.40;78.60
38514;DHT22;24282;48.400;10.808;2023-05-10T11:56:35;16.40;75.80
38514;DHT22;24282;48.400;10.808;2023-05-10T11:59:01;16.30;74.70
38514;DHT22;24282;48.400;10.808;2023-05-10T12:01:28;16.20;74.70
38514;DHT22;24282;48.400;10.808;2023-05-10T12:03:56;16.10;76.30
38514;DHT22;24282;48.400;10.808;2023-05-10T12:06:30;16.10;77.20
38514;DHT22;24282;48.400;10.808;2023-05-10T12:08:56;16.00;78.00
38514;DHT22;24282;48.400;10.808;2023-05-10T12:11:27;16.00;78.10
38514;DHT22;24282;48.400;10.808;2023-05-10T12:13:54;16.10;77.30
38514;DHT22;24282;48.400;10.808;2023-05-10T12:16:25;16.10;77.20
38514;DHT22;24282;48.400;10.808;2023-05-10T12:18:52;16.20;76.90
38514;DHT22;24282;48.400;10.808;2023-05-10T12:21:22;16.30;73.80
38514;DHT22;24282;48.400;10.808;2023-05-10T12:23:52;16.40;71.70
38514;DHT22;24282;48.400;10.808;2023-05-10T12:26:21;16.40;72.80
38514;DHT22;24282;48.400;10.808;2023-05-10T12:28:47;16.60;69.90
38514;DHT22;24282;48.400;10.808;2023-05-10T12:31:12;16.60;68.90
38514;DHT22;24282;48.400;10.808;2023-05-10T12:33:43;16.50;70.60
38514;DHT22;24282;48.400;10.808;2023-05-10T12:36:15;16.70;69.00
38514;DHT22;24282;48.400;10.808;2023-05-10T12:38:43;16.70;68.80
38514;DHT22;24282;48.400;10.808;2023-05-10T12:41:11;16.60;68.40
38514;DHT22;24282;48.400;10.808;2023-05-10T12:43:37;16.50;69.70
38514;DHT22;24282;48.400;10.808;2023-05-10T12:46:12;16.40;70.30
38514;DHT22;24282;48.400;10.808;2023-05-10T12:48:39;16.50;66.90
38514;DHT22;24282;48.400;10.808;2023-05-10T12:51:05;16.40;67.90
38514;DHT22;24282;48.400;10.808;2023-05-10T12:53:35;16.40;68.90
38514;DHT22;24282;48.400;10.808;2023-05-10T12:56:01;16.30;69.50
38514;DHT22;24282;48.400;10.808;2023-05-10T12:58:26;16.30;71.20
38514;DHT22;24282;48.400;10.808;2023-05-10T13:00:52;16.20;72.10
38514;DHT22;24282;48.400;10.808;2023-05-10T13:03:18;16.20;71.10
38514;DHT22;24282;48.400;10.808;2023-05-10T13:05:44;16.10;71.60
38514;DHT22;24282;48.400;10.808;2023-05-10T13:08:10;15.90;71.10
38514;DHT22;24282;48.400;10.808;2023-05-10T13:10:36;15.70;71.90
38514;DHT22;24282;48.400;10.808;2023-05-10T13:13:02;15.70;73.40
38514;DHT22;24282;48.400;10.808;2023-05-10T13:15:28;15.60;75.70
38514;DHT22;24282;48.400;10.808;2023-05-10T13:17:54;15.50;76.30
38514;DHT22;24282;48.400;10.808;2023-05-10T13:20:20;15.40;76.50
38514;DHT22;24282;48.400;10.808;2023-05-10T13:22:46;15.40;78.00
38514;DHT22;24282;48.400;10.808;2023-05-10T13:25:12;15.40;78.60
38514;DHT22;24282;48.400;10.808;2023-05-10T13:27:39;15.30;78.00
38514;DHT22;24282;48.400;10.808;2023-05-10T13:30:06;15.30;78.40
38514;DHT22;24282;48.400;10.808;2023-05-10T13:32:31;15.30;78.60
38514;DHT22;24282;48.400;10.808;2023-05-10T13:34:58;15.40;79.00
38514;DHT22;24282;48.400;10.808;2023-05-10T13:37:23;15.40;79.40
38514;DHT22;24282;48.400;10.808;2023-05-10T13:39:49;15.40;78.90
38514;DHT22;24282;48.400;10.808;2023-05-10T13:42:15;15.40;78.30
38514;DHT22;24282;48.400;10.808;2023-05-10T13:44:40;15.40;79.00
38514;DHT22;24282;48.400;10.808;2023-05-10T13:47:06;15.40;79.50
38514;DHT22;24282;48.400;10.808;2023-05-10T13:49:32;15.40;78.10
38514;DHT22;24282;48.400;10.808;2023-05-10T13:51:59;15.40;78.00
38514;DHT22;24282;48.400;10.808;2023-05-10T13:54:31;15.40;78.20
38514;DHT22;24282;48.400;10.808;2023-05-10T13:56:57;15.40;76.20
38514;DHT22;24282;48.400;10.808;2023-05-10T13:59:23;15.30;77.30
38514;DHT22;24282;48.400;10.808;2023-05-10T14:01:48;15.30;77.10
38514;DHT22;24282;48.400;10.808;2023-05-10T14:04:14;15.20;75.20
38514;DHT22;24282;48.400;10.808;2023-05-10T14:06:40;15.10;76.10
38514;DHT22;24282;48.400;10.808;2023-05-10T14:09:06;14.90;74.40
38514;DHT22;24282;48.400;10.808;2023-05-10T14:11:32;14.60;76.60
38514;DHT22;24282;48.400;10.808;2023-05-10T14:13:57;14.50;77.40
38514;DHT22;24282;48.400;10.808;2023-05-10T14:16:23;14.30;78.70
38514;DHT22;24282;48.400;10.808;2023-05-10T14:18:49;14.30;79.60
38514;DHT22;24282;48.400;10.808;2023-05-10T14:21:15;14.20;79.60
38514;DHT22;24282;48.400;10.808;2023-05-10T14:23:40;14.10;79.60
38514;DHT22;24282;48.400;10.808;2023-05-10T14:26:06;14.10;80.50
38514;DHT22;24282;48.400;10.808;2023-05-10T14:28:32;14.10;80.90
38514;DHT22;24282;48.400;10.808;2023-05-10T14:30:58;14.10;81.30
38514;DHT22;24282;48.400;10.808;2023-05-10T14:33:24;14.00;81.40
38514;DHT22;24282;48.400;10.808;2023-05-10T14:35:50;14.00;81.80
38514;DHT22;24282;48.400;10.808;2023-05-10T14:38:16;14.00;81.80
38514;DHT22;24282;48.400;10.808;2023-05-10T14:40:42;13.90;81.40
38514;DHT22;24282;48.400;10.808;2023-05-10T14:43:08;13.90;81.30
38514;DHT22;24282;48.400;10.808;2023-05-10T14:45:34;13.90;81.80
38514;DHT22;24282;48.400;10.808;2023-05-10T14:48:00;13.90;81.80
38514;DHT22;24282;48.400;10.808;2023-05-10T14:50:30;13.80;82.00
38514;DHT22;24282;48.400;10.808;2023-05-10T14:52:56;13.80;82.00
38514;DHT22;24282;48.400;10.808;2023-05-10T14:55:22;13.80;82.70
38514;DHT22;24282;48.400;10.808;2023-05-10T14:57:48;13.70;82.90
38514;DHT22;24282;48.400;10.808;2023-05-10T15:00:16;13.80;83.60
38514;DHT22;24282;48.400;10.808;2023-05-10T15:02:41;13.70;83.30
38514;DHT22;24282;48.400;10.808;2023-05-10T15:05:07;13.80;82.10
38514;DHT22;24282;48.400;10.808;2023-05-10T15:07:33;13.70;82.30
38514;DHT22;24282;48.400;10.808;2023-05-10T15:09:59;13.70;82.50
38514;DHT22;24282;48.400;10.808;2023-05-10T15:12:24;13.80;82.70
38514;DHT22;24282;48.400;10.808;2023-05-10T15:14:50;13.70;82.30
38514;DHT22;24282;48.400;10.808;2023-05-10T15:17:16;13.70;82.70
38514;DHT22;24282;48.400;10.808;2023-05-10T15:19:42;13.70;82.60
38514;DHT22;24282;48.400;10.808;2023-05-10T15:22:08;13.70;82.80
38514;DHT22;24282;48.400;10.808;2023-05-10T15:24:34;13.70;82.30
38514;DHT22;24282;48.400;10.808;2023-05-10T15:26:59;13.60;82.50
38514;DHT22;24282;48.400;10.808;2023-05-10T15:29:26;13.60;82.60
38514;DHT22;24282;48.400;10.808;2023-05-10T15:31:52;13.50;82.20
38514;DHT22;24282;48.400;10.808;2023-05-10T15:34:18;13.50;81.50
38514;DHT22;24282;48.400;10.808;2023-05-10T15:36:44;13.50;81.30
38514;DHT22;24282;48.400;10.808;2023-05-10T15:39:11;13.50;80.20
38514;DHT22;24282;48.400;10.808;2023-05-10T15:41:36;13.40;81.30
38514;DHT22;24282;48.400;10.808;2023-05-10T15:44:02;13.40;81.70
38514;DHT22;24282;48.400;10.808;2023-05-10T15:46:29;13.40;81.90